Radnor, Pennsylvania
Current Conditions -  °F | °C
As of 4:35 AM on Thursday 23 Oct 2014 (Local Time) from KLOM Reporting Station
Overcast Overcast  
Wind Chill: 52°   Ceiling: 3200
Heat Index: 52°   Visibility: 10mi
Dew Point: 46°   Wind: 9mph
Humidity: 82%   Direction: 330°NNW
Pressure: 29.75"   Gusts: NA
Location:  40.0627°N, 75.4015°W
Report Text: KLOM 230835Z AUTO 33008KT 290V010 10SM BKN032 OVC039 11/08 A2975 RMK AO1
Loading
Personal Weather Stations






























Interactive Weather Map
Tropical Storm Tracking
New forecast layout! Learn more

10-Day Weather Forecast

Advertisements
Track Severe Weather on mobile